sensor_id;sensor_type;location;lat;lon;timestamp;P1;durP1;ratioP1;P2;durP2;ratioP2
3627;SDS011;1830;49.000;12.074;2023-06-22T00:00:46;12.13;;;10.53;;
3627;SDS011;1830;49.000;12.074;2023-06-22T00:03:13;18.73;;;10.93;;
3627;SDS011;1830;49.000;12.074;2023-06-22T00:05:40;20.23;;;11.30;;
3627;SDS011;1830;49.000;12.074;2023-06-22T00:08:07;16.07;;;10.50;;
3627;SDS011;1830;49.000;12.074;2023-06-22T00:10:33;12.67;;;10.17;;
3627;SDS011;1830;49.000;12.074;2023-06-22T00:13:02;15.70;;;11.03;;
3627;SDS011;1830;49.000;12.074;2023-06-22T00:15:29;13.60;;;10.80;;
3627;SDS011;1830;49.000;12.074;2023-06-22T00:17:56;15.57;;;10.67;;
3627;SDS011;1830;49.000;12.074;2023-06-22T00:20:23;13.93;;;10.13;;
3627;SDS011;1830;49.000;12.074;2023-06-22T00:22:53;18.67;;;11.37;;
3627;SDS011;1830;49.000;12.074;2023-06-22T00:25:19;20.00;;;11.40;;
3627;SDS011;1830;49.000;12.074;2023-06-22T00:27:46;11.90;;;10.70;;
3627;SDS011;1830;49.000;12.074;2023-06-22T00:30:15;17.63;;;11.70;;
3627;SDS011;1830;49.000;12.074;2023-06-22T00:32:42;12.83;;;10.37;;
3627;SDS011;1830;49.000;12.074;2023-06-22T00:35:09;13.90;;;10.50;;
3627;SDS011;1830;49.000;12.074;2023-06-22T00:37:37;23.80;;;11.00;;
3627;SDS011;1830;49.000;12.074;2023-06-22T00:40:07;20.20;;;10.80;;
3627;SDS011;1830;49.000;12.074;2023-06-22T00:42:36;18.60;;;11.80;;
3627;SDS011;1830;49.000;12.074;2023-06-22T00:45:03;18.30;;;12.03;;
3627;SDS011;1830;49.000;12.074;2023-06-22T00:47:32;14.60;;;10.60;;
3627;SDS011;1830;49.000;12.074;2023-06-22T00:50:01;13.77;;;11.30;;
3627;SDS011;1830;49.000;12.074;2023-06-22T00:52:29;12.90;;;11.10;;
3627;SDS011;1830;49.000;12.074;2023-06-22T00:54:58;29.33;;;13.30;;
3627;SDS011;1830;49.000;12.074;2023-06-22T00:57:26;15.70;;;12.20;;
3627;SDS011;1830;49.000;12.074;2023-06-22T00:59:54;15.23;;;11.53;;
3627;SDS011;1830;49.000;12.074;2023-06-22T01:02:21;19.40;;;12.27;;
3627;SDS011;1830;49.000;12.074;2023-06-22T01:04:49;13.13;;;11.30;;
3627;SDS011;1830;49.000;12.074;2023-06-22T01:07:17;14.77;;;11.27;;
3627;SDS011;1830;49.000;12.074;2023-06-22T01:09:51;23.63;;;12.03;;
3627;SDS011;1830;49.000;12.074;2023-06-22T01:12:25;14.97;;;12.40;;
3627;SDS011;1830;49.000;12.074;2023-06-22T01:14:58;15.70;;;11.43;;
3627;SDS011;1830;49.000;12.074;2023-06-22T01:17:29;19.07;;;10.90;;
3627;SDS011;1830;49.000;12.074;2023-06-22T01:19:58;16.90;;;12.63;;
3627;SDS011;1830;49.000;12.074;2023-06-22T01:22:30;16.17;;;11.80;;
3627;SDS011;1830;49.000;12.074;2023-06-22T01:25:06;21.40;;;12.87;;
3627;SDS011;1830;49.000;12.074;2023-06-22T01:27:39;24.13;;;12.27;;
3627;SDS011;1830;49.000;12.074;2023-06-22T01:30:15;14.93;;;11.63;;
3627;SDS011;1830;49.000;12.074;2023-06-22T01:32:43;15.23;;;11.37;;
3627;SDS011;1830;49.000;12.074;2023-06-22T01:35:10;16.00;;;12.10;;
3627;SDS011;1830;49.000;12.074;2023-06-22T01:37:38;14.40;;;11.37;;
3627;SDS011;1830;49.000;12.074;2023-06-22T01:40:05;14.80;;;11.20;;
3627;SDS011;1830;49.000;12.074;2023-06-22T01:42:34;11.13;;;10.00;;
3627;SDS011;1830;49.000;12.074;2023-06-22T01:45:03;14.03;;;11.30;;
3627;SDS011;1830;49.000;12.074;2023-06-22T01:47:32;16.80;;;10.53;;
3627;SDS011;1830;49.000;12.074;2023-06-22T01:49:59;15.20;;;10.50;;
3627;SDS011;1830;49.000;12.074;2023-06-22T01:52:26;12.87;;;10.73;;
3627;SDS011;1830;49.000;12.074;2023-06-22T01:54:53;20.10;;;12.00;;
3627;SDS011;1830;49.000;12.074;2023-06-22T01:57:22;19.23;;;11.70;;
3627;SDS011;1830;49.000;12.074;2023-06-22T01:59:51;17.07;;;11.80;;
3627;SDS011;1830;49.000;12.074;2023-06-22T02:02:27;17.47;;;12.63;;
3627;SDS011;1830;49.000;12.074;2023-06-22T02:05:01;20.97;;;13.60;;
3627;SDS011;1830;49.000;12.074;2023-06-22T02:07:32;16.83;;;12.33;;
3627;SDS011;1830;49.000;12.074;2023-06-22T02:10:02;15.83;;;12.70;;
3627;SDS011;1830;49.000;12.074;2023-06-22T02:12:32;23.07;;;12.60;;
3627;SDS011;1830;49.000;12.074;2023-06-22T02:15:00;15.77;;;12.43;;
3627;SDS011;1830;49.000;12.074;2023-06-22T02:17:27;14.30;;;12.90;;
3627;SDS011;1830;49.000;12.074;2023-06-22T02:19:59;16.30;;;13.50;;
3627;SDS011;1830;49.000;12.074;2023-06-22T02:22:28;18.00;;;13.00;;
3627;SDS011;1830;49.000;12.074;2023-06-22T02:24:55;19.73;;;13.20;;
3627;SDS011;1830;49.000;12.074;2023-06-22T02:27:23;19.50;;;13.10;;
3627;SDS011;1830;49.000;12.074;2023-06-22T02:29:50;19.50;;;12.20;;
3627;SDS011;1830;49.000;12.074;2023-06-22T02:32:17;20.03;;;12.93;;
3627;SDS011;1830;49.000;12.074;2023-06-22T02:34:43;20.30;;;12.60;;
3627;SDS011;1830;49.000;12.074;2023-06-22T02:37:13;15.63;;;11.97;;
3627;SDS011;1830;49.000;12.074;2023-06-22T02:39:41;21.83;;;12.70;;
3627;SDS011;1830;49.000;12.074;2023-06-22T02:42:07;15.60;;;13.20;;
3627;SDS011;1830;49.000;12.074;2023-06-22T02:44:35;18.63;;;12.40;;
3627;SDS011;1830;49.000;12.074;2023-06-22T02:47:02;15.67;;;13.10;;
3627;SDS011;1830;49.000;12.074;2023-06-22T02:49:29;18.90;;;12.87;;
3627;SDS011;1830;49.000;12.074;2023-06-22T02:51:56;21.73;;;12.97;;
3627;SDS011;1830;49.000;12.074;2023-06-22T02:54:25;17.50;;;13.20;;
3627;SDS011;1830;49.000;12.074;2023-06-22T02:56:51;20.30;;;12.90;;
3627;SDS011;1830;49.000;12.074;2023-06-22T02:59:18;19.23;;;11.83;;
3627;SDS011;1830;49.000;12.074;2023-06-22T03:01:48;16.47;;;13.20;;
3627;SDS011;1830;49.000;12.074;2023-06-22T03:04:15;14.17;;;12.67;;
3627;SDS011;1830;49.000;12.074;2023-06-22T03:06:44;21.70;;;13.70;;
3627;SDS011;1830;49.000;12.074;2023-06-22T03:09:15;17.80;;;12.27;;
3627;SDS011;1830;49.000;12.074;2023-06-22T03:11:44;19.73;;;12.27;;
3627;SDS011;1830;49.000;12.074;2023-06-22T03:14:11;14.77;;;12.57;;
3627;SDS011;1830;49.000;12.074;2023-06-22T03:16:37;22.00;;;12.60;;
3627;SDS011;1830;49.000;12.074;2023-06-22T03:19:06;19.33;;;14.33;;
3627;SDS011;1830;49.000;12.074;2023-06-22T03:21:32;23.80;;;13.87;;
3627;SDS011;1830;49.000;12.074;2023-06-22T03:23:59;17.73;;;12.83;;
3627;SDS011;1830;49.000;12.074;2023-06-22T03:26:26;20.07;;;12.80;;
3627;SDS011;1830;49.000;12.074;2023-06-22T03:28:54;23.70;;;12.63;;
3627;SDS011;1830;49.000;12.074;2023-06-22T03:31:21;17.13;;;12.90;;
3627;SDS011;1830;49.000;12.074;2023-06-22T03:33:48;18.07;;;13.67;;
3627;SDS011;1830;49.000;12.074;2023-06-22T03:36:17;51.10;;;13.60;;
3627;SDS011;1830;49.000;12.074;2023-06-22T03:38:44;17.47;;;13.97;;
3627;SDS011;1830;49.000;12.074;2023-06-22T03:41:12;25.03;;;13.60;;
3627;SDS011;1830;49.000;12.074;2023-06-22T03:43:39;25.00;;;14.33;;
3627;SDS011;1830;49.000;12.074;2023-06-22T03:46:07;22.60;;;15.67;;
3627;SDS011;1830;49.000;12.074;2023-06-22T03:48:34;17.50;;;15.17;;
3627;SDS011;1830;49.000;12.074;2023-06-22T03:51:01;18.03;;;13.60;;
3627;SDS011;1830;49.000;12.074;2023-06-22T03:53:29;22.37;;;14.87;;
3627;SDS011;1830;49.000;12.074;2023-06-22T03:55:55;19.07;;;14.43;;
3627;SDS011;1830;49.000;12.074;2023-06-22T03:58:22;18.13;;;13.50;;
3627;SDS011;1830;49.000;12.074;2023-06-22T04:00:50;17.13;;;13.07;;
3627;SDS011;1830;49.000;12.074;2023-06-22T04:03:19;24.90;;;15.13;;
3627;SDS011;1830;49.000;12.074;2023-06-22T04:05:46;30.13;;;14.10;;
3627;SDS011;1830;49.000;12.074;2023-06-22T04:08:13;18.10;;;12.90;;
3627;SDS011;1830;49.000;12.074;2023-06-22T04:10:41;20.67;;;13.23;;
3627;SDS011;1830;49.000;12.074;2023-06-22T04:13:09;24.13;;;13.00;;
3627;SDS011;1830;49.000;12.074;2023-06-22T04:15:35;17.63;;;14.07;;
3627;SDS011;1830;49.000;12.074;2023-06-22T04:18:02;19.13;;;12.93;;
3627;SDS011;1830;49.000;12.074;2023-06-22T04:20:30;18.90;;;13.87;;
3627;SDS011;1830;49.000;12.074;2023-06-22T04:22:58;14.93;;;13.30;;
3627;SDS011;1830;49.000;12.074;2023-06-22T04:25:24;19.20;;;13.97;;
3627;SDS011;1830;49.000;12.074;2023-06-22T04:27:51;27.40;;;14.47;;
3627;SDS011;1830;49.000;12.074;2023-06-22T04:30:18;17.93;;;14.07;;
3627;SDS011;1830;49.000;12.074;2023-06-22T04:32:49;16.33;;;14.10;;
3627;SDS011;1830;49.000;12.074;2023-06-22T04:35:21;21.10;;;14.10;;
3627;SDS011;1830;49.000;12.074;2023-06-22T04:37:50;20.67;;;14.07;;
3627;SDS011;1830;49.000;12.074;2023-06-22T04:40:20;15.50;;;13.90;;
3627;SDS011;1830;49.000;12.074;2023-06-22T04:42:47;16.93;;;14.40;;
3627;SDS011;1830;49.000;12.074;2023-06-22T04:45:17;19.20;;;14.70;;
3627;SDS011;1830;49.000;12.074;2023-06-22T04:47:44;18.40;;;14.77;;
3627;SDS011;1830;49.000;12.074;2023-06-22T04:50:11;16.03;;;14.33;;
3627;SDS011;1830;49.000;12.074;2023-06-22T04:52:38;20.53;;;15.00;;
3627;SDS011;1830;49.000;12.074;2023-06-22T04:55:07;22.53;;;15.50;;
3627;SDS011;1830;49.000;12.074;2023-06-22T04:57:34;19.83;;;15.30;;
3627;SDS011;1830;49.000;12.074;2023-06-22T05:00:04;21.33;;;15.57;;
3627;SDS011;1830;49.000;12.074;2023-06-22T05:02:37;25.90;;;18.00;;
3627;SDS011;1830;49.000;12.074;2023-06-22T05:05:05;18.37;;;15.50;;
3627;SDS011;1830;49.000;12.074;2023-06-22T05:07:32;19.50;;;17.07;;
3627;SDS011;1830;49.000;12.074;2023-06-22T05:09:59;22.60;;;15.97;;
3627;SDS011;1830;49.000;12.074;2023-06-22T05:12:29;23.00;;;17.57;;
3627;SDS011;1830;49.000;12.074;2023-06-22T05:14:56;24.00;;;17.23;;
3627;SDS011;1830;49.000;12.074;2023-06-22T05:17:23;23.20;;;15.53;;
3627;SDS011;1830;49.000;12.074;2023-06-22T05:19:50;19.30;;;15.53;;
3627;SDS011;1830;49.000;12.074;2023-06-22T05:22:17;20.77;;;16.30;;
3627;SDS011;1830;49.000;12.074;2023-06-22T05:24:44;18.30;;;15.73;;
3627;SDS011;1830;49.000;12.074;2023-06-22T05:27:11;23.27;;;14.30;;
3627;SDS011;1830;49.000;12.074;2023-06-22T05:29:39;29.23;;;14.60;;
3627;SDS011;1830;49.000;12.074;2023-06-22T05:32:07;27.93;;;14.97;;
3627;SDS011;1830;49.000;12.074;2023-06-22T05:34:34;19.70;;;15.67;;
3627;SDS011;1830;49.000;12.074;2023-06-22T05:37:01;22.93;;;16.40;;
3627;SDS011;1830;49.000;12.074;2023-06-22T05:39:28;19.30;;;15.10;;
3627;SDS011;1830;49.000;12.074;2023-06-22T05:41:55;15.07;;;13.53;;
3627;SDS011;1830;49.000;12.074;2023-06-22T05:44:22;16.37;;;14.07;;
3627;SDS011;1830;49.000;12.074;2023-06-22T05:46:50;19.60;;;13.63;;
3627;SDS011;1830;49.000;12.074;2023-06-22T05:49:17;22.20;;;14.20;;
3627;SDS011;1830;49.000;12.074;2023-06-22T05:51:44;19.40;;;13.40;;
3627;SDS011;1830;49.000;12.074;2023-06-22T05:54:10;16.73;;;13.00;;
3627;SDS011;1830;49.000;12.074;2023-06-22T05:56:38;19.57;;;12.90;;
3627;SDS011;1830;49.000;12.074;2023-06-22T05:59:05;15.30;;;12.40;;
3627;SDS011;1830;49.000;12.074;2023-06-22T06:01:32;17.50;;;11.60;;
3627;SDS011;1830;49.000;12.074;2023-06-22T06:04:02;15.60;;;13.30;;
3627;SDS011;1830;49.000;12.074;2023-06-22T06:06:30;15.83;;;13.30;;
3627;SDS011;1830;49.000;12.074;2023-06-22T06:08:56;20.23;;;12.27;;
3627;SDS011;1830;49.000;12.074;2023-06-22T06:11:24;13.17;;;11.70;;
3627;SDS011;1830;49.000;12.074;2023-06-22T06:13:51;17.73;;;13.30;;
3627;SDS011;1830;49.000;12.074;2023-06-22T06:16:18;26.93;;;14.63;;
3627;SDS011;1830;49.000;12.074;2023-06-22T06:18:45;14.23;;;12.27;;
3627;SDS011;1830;49.000;12.074;2023-06-22T06:21:14;17.30;;;11.80;;
3627;SDS011;1830;49.000;12.074;2023-06-22T06:23:41;15.17;;;11.90;;
3627;SDS011;1830;49.000;12.074;2023-06-22T06:26:08;14.83;;;12.13;;
3627;SDS011;1830;49.000;12.074;2023-06-22T06:28:35;14.30;;;11.67;;
3627;SDS011;1830;49.000;12.074;2023-06-22T06:31:02;16.17;;;12.30;;
3627;SDS011;1830;49.000;12.074;2023-06-22T06:33:32;19.20;;;11.63;;
3627;SDS011;1830;49.000;12.074;2023-06-22T06:35:58;19.03;;;12.97;;
3627;SDS011;1830;49.000;12.074;2023-06-22T06:38:29;13.67;;;11.60;;
3627;SDS011;1830;49.000;12.074;2023-06-22T06:40:56;15.63;;;11.73;;
3627;SDS011;1830;49.000;12.074;2023-06-22T06:43:24;14.90;;;12.20;;
3627;SDS011;1830;49.000;12.074;2023-06-22T06:45:51;16.83;;;11.50;;
3627;SDS011;1830;49.000;12.074;2023-06-22T06:48:17;17.40;;;11.30;;
3627;SDS011;1830;49.000;12.074;2023-06-22T06:50:44;15.27;;;10.27;;
3627;SDS011;1830;49.000;12.074;2023-06-22T06:53:11;15.70;;;11.30;;
3627;SDS011;1830;49.000;12.074;2023-06-22T06:55:39;14.80;;;11.53;;
3627;SDS011;1830;49.000;12.074;2023-06-22T06:58:06;11.93;;;10.37;;
3627;SDS011;1830;49.000;12.074;2023-06-22T07:00:34;13.23;;;10.80;;
3627;SDS011;1830;49.000;12.074;2023-06-22T07:03:01;13.87;;;10.80;;
3627;SDS011;1830;49.000;12.074;2023-06-22T07:05:28;12.30;;;10.10;;
3627;SDS011;1830;49.000;12.074;2023-06-22T07:07:55;15.00;;;10.80;;
3627;SDS011;1830;49.000;12.074;2023-06-22T07:10:22;16.43;;;10.43;;
3627;SDS011;1830;49.000;12.074;2023-06-22T07:12:50;19.67;;;9.50;;
3627;SDS011;1830;49.000;12.074;2023-06-22T07:15:17;12.07;;;9.83;;
3627;SDS011;1830;49.000;12.074;2023-06-22T07:17:44;19.73;;;11.60;;
3627;SDS011;1830;49.000;12.074;2023-06-22T07:20:11;14.53;;;10.53;;
3627;SDS011;1830;49.000;12.074;2023-06-22T07:22:38;13.23;;;9.60;;
3627;SDS011;1830;49.000;12.074;2023-06-22T07:25:06;20.03;;;10.03;;
3627;SDS011;1830;49.000;12.074;2023-06-22T07:27:35;18.03;;;10.90;;
3627;SDS011;1830;49.000;12.074;2023-06-22T07:30:05;14.33;;;10.40;;
3627;SDS011;1830;49.000;12.074;2023-06-22T07:32:33;18.83;;;9.07;;
3627;SDS011;1830;49.000;12.074;2023-06-22T07:35:00;11.57;;;8.63;;
3627;SDS011;1830;49.000;12.074;2023-06-22T07:37:27;17.63;;;9.87;;
3627;SDS011;1830;49.000;12.074;2023-06-22T07:39:54;16.43;;;10.67;;
3627;SDS011;1830;49.000;12.074;2023-06-22T07:42:23;18.83;;;9.10;;
3627;SDS011;1830;49.000;12.074;2023-06-22T07:44:50;13.97;;;9.17;;
3627;SDS011;1830;49.000;12.074;2023-06-22T07:47:19;15.10;;;9.53;;
3627;SDS011;1830;49.000;12.074;2023-06-22T07:49:50;12.50;;;9.10;;
3627;SDS011;1830;49.000;12.074;2023-06-22T07:52:16;11.73;;;9.20;;
3627;SDS011;1830;49.000;12.074;2023-06-22T07:54:43;19.20;;;9.80;;
3627;SDS011;1830;49.000;12.074;2023-06-22T07:57:10;13.70;;;9.20;;
3627;SDS011;1830;49.000;12.074;2023-06-22T07:59:37;13.73;;;8.43;;
3627;SDS011;1830;49.000;12.074;2023-06-22T08:02:03;16.00;;;8.27;;
3627;SDS011;1830;49.000;12.074;2023-06-22T08:04:32;10.07;;;8.27;;
3627;SDS011;1830;49.000;12.074;2023-06-22T08:06:59;14.00;;;8.37;;
3627;SDS011;1830;49.000;12.074;2023-06-22T08:09:27;13.87;;;8.80;;
3627;SDS011;1830;49.000;12.074;2023-06-22T08:11:54;15.00;;;8.13;;
3627;SDS011;1830;49.000;12.074;2023-06-22T08:14:21;13.17;;;7.70;;
3627;SDS011;1830;49.000;12.074;2023-06-22T08:16:48;10.70;;;6.93;;
3627;SDS011;1830;49.000;12.074;2023-06-22T08:19:15;15.33;;;7.80;;
3627;SDS011;1830;49.000;12.074;2023-06-22T08:21:44;12.23;;;7.53;;
3627;SDS011;1830;49.000;12.074;2023-06-22T08:24:10;14.00;;;7.97;;
3627;SDS011;1830;49.000;12.074;2023-06-22T08:26:37;10.77;;;7.32;;
3627;SDS011;1830;49.000;12.074;2023-06-22T08:29:04;13.63;;;7.63;;
3627;SDS011;1830;49.000;12.074;2023-06-22T08:31:31;14.15;;;7.13;;
3627;SDS011;1830;49.000;12.074;2023-06-22T08:33:59;20.00;;;7.17;;
3627;SDS011;1830;49.000;12.074;2023-06-22T08:36:26;12.40;;;7.43;;
3627;SDS011;1830;49.000;12.074;2023-06-22T08:39:01;20.42;;;7.22;;
3627;SDS011;1830;49.000;12.074;2023-06-22T08:41:28;19.48;;;8.07;;
3627;SDS011;1830;49.000;12.074;2023-06-22T08:43:55;23.63;;;8.23;;
3627;SDS011;1830;49.000;12.074;2023-06-22T08:46:22;12.57;;;7.05;;
3627;SDS011;1830;49.000;12.074;2023-06-22T08:48:55;12.55;;;7.40;;
3627;SDS011;1830;49.000;12.074;2023-06-22T08:51:22;15.38;;;6.55;;
3627;SDS011;1830;49.000;12.074;2023-06-22T08:53:49;12.25;;;7.05;;
3627;SDS011;1830;49.000;12.074;2023-06-22T08:56:17;10.27;;;6.70;;
3627;SDS011;1830;49.000;12.074;2023-06-22T08:58:44;12.80;;;7.07;;
3627;SDS011;1830;49.000;12.074;2023-06-22T09:01:11;13.57;;;6.80;;
3627;SDS011;1830;49.000;12.074;2023-06-22T09:03:37;12.23;;;7.30;;
3627;SDS011;1830;49.000;12.074;2023-06-22T09:06:04;20.48;;;7.25;;
3627;SDS011;1830;49.000;12.074;2023-06-22T09:08:31;14.68;;;6.93;;
3627;SDS011;1830;49.000;12.074;2023-06-22T09:10:58;13.35;;;7.25;;
3627;SDS011;1830;49.000;12.074;2023-06-22T09:13:27;16.40;;;7.00;;
3627;SDS011;1830;49.000;12.074;2023-06-22T09:15:55;10.20;;;6.75;;
3627;SDS011;1830;49.000;12.074;2023-06-22T09:18:22;14.63;;;7.78;;
3627;SDS011;1830;49.000;12.074;2023-06-22T09:20:48;10.18;;;7.15;;
3627;SDS011;1830;49.000;12.074;2023-06-22T09:23:15;19.10;;;6.97;;
3627;SDS011;1830;49.000;12.074;2023-06-22T09:25:42;15.05;;;7.72;;
3627;SDS011;1830;49.000;12.074;2023-06-22T09:28:09;12.30;;;6.93;;
3627;SDS011;1830;49.000;12.074;2023-06-22T09:30:37;10.45;;;6.97;;
3627;SDS011;1830;49.000;12.074;2023-06-22T09:33:03;13.95;;;6.50;;
3627;SDS011;1830;49.000;12.074;2023-06-22T09:35:30;11.15;;;6.90;;
3627;SDS011;1830;49.000;12.074;2023-06-22T09:37:57;18.30;;;7.45;;
3627;SDS011;1830;49.000;12.074;2023-06-22T09:40:24;10.98;;;6.70;;
3627;SDS011;1830;49.000;12.074;2023-06-22T09:42:51;15.93;;;6.85;;
3627;SDS011;1830;49.000;12.074;2023-06-22T09:45:17;10.73;;;6.70;;
3627;SDS011;1830;49.000;12.074;2023-06-22T09:47:45;16.25;;;6.18;;
3627;SDS011;1830;49.000;12.074;2023-06-22T09:50:12;13.20;;;6.80;;
3627;SDS011;1830;49.000;12.074;2023-06-22T09:52:39;14.88;;;7.13;;
3627;SDS011;1830;49.000;12.074;2023-06-22T09:55:09;12.70;;;6.97;;
3627;SDS011;1830;49.000;12.074;2023-06-22T09:57:36;11.13;;;7.03;;
3627;SDS011;1830;49.000;12.074;2023-06-22T10:00:03;16.35;;;6.50;;
3627;SDS011;1830;49.000;12.074;2023-06-22T10:02:33;14.00;;;6.45;;
3627;SDS011;1830;49.000;12.074;2023-06-22T10:05:01;13.45;;;6.15;;
3627;SDS011;1830;49.000;12.074;2023-06-22T10:07:28;17.60;;;6.65;;
3627;SDS011;1830;49.000;12.074;2023-06-22T10:09:55;20.35;;;7.38;;
3627;SDS011;1830;49.000;12.074;2023-06-22T10:12:22;17.00;;;7.85;;
3627;SDS011;1830;49.000;12.074;2023-06-22T10:14:49;13.80;;;7.18;;
3627;SDS011;1830;49.000;12.074;2023-06-22T10:17:15;19.25;;;6.65;;
3627;SDS011;1830;49.000;12.074;2023-06-22T10:19:42;16.63;;;7.35;;
3627;SDS011;1830;49.000;12.074;2023-06-22T10:22:10;18.98;;;6.47;;
3627;SDS011;1830;49.000;12.074;2023-06-22T10:24:37;16.98;;;6.57;;
3627;SDS011;1830;49.000;12.074;2023-06-22T10:27:09;19.23;;;7.20;;
3627;SDS011;1830;49.000;12.074;2023-06-22T10:29:36;15.93;;;7.15;;
3627;SDS011;1830;49.000;12.074;2023-06-22T10:32:03;18.92;;;6.65;;
3627;SDS011;1830;49.000;12.074;2023-06-22T10:34:30;15.68;;;7.15;;
3627;SDS011;1830;49.000;12.074;2023-06-22T10:36:57;20.33;;;6.82;;
3627;SDS011;1830;49.000;12.074;2023-06-22T10:39:25;18.33;;;7.15;;
3627;SDS011;1830;49.000;12.074;2023-06-22T10:41:51;11.70;;;6.47;;
3627;SDS011;1830;49.000;12.074;2023-06-22T10:44:18;16.73;;;7.35;;
3627;SDS011;1830;49.000;12.074;2023-06-22T10:46:45;19.38;;;6.85;;
3627;SDS011;1830;49.000;12.074;2023-06-22T10:49:12;18.88;;;7.35;;
3627;SDS011;1830;49.000;12.074;2023-06-22T10:51:39;16.88;;;6.88;;
3627;SDS011;1830;49.000;12.074;2023-06-22T10:54:06;17.83;;;7.00;;
3627;SDS011;1830;49.000;12.074;2023-06-22T10:56:34;22.13;;;7.78;;
3627;SDS011;1830;49.000;12.074;2023-06-22T10:59:01;10.98;;;6.07;;
3627;SDS011;1830;49.000;12.074;2023-06-22T11:01:28;17.38;;;7.45;;
3627;SDS011;1830;49.000;12.074;2023-06-22T11:03:56;19.70;;;7.15;;
3627;SDS011;1830;49.000;12.074;2023-06-22T11:06:22;15.60;;;6.78;;
3627;SDS011;1830;49.000;12.074;2023-06-22T11:08:49;14.90;;;6.82;;
3627;SDS011;1830;49.000;12.074;2023-06-22T11:11:16;14.20;;;6.40;;
3627;SDS011;1830;49.000;12.074;2023-06-22T11:13:44;11.88;;;6.80;;
3627;SDS011;1830;49.000;12.074;2023-06-22T11:16:11;14.32;;;6.63;;
3627;SDS011;1830;49.000;12.074;2023-06-22T11:18:38;19.92;;;8.18;;
3627;SDS011;1830;49.000;12.074;2023-06-22T11:21:05;20.23;;;8.40;;
3627;SDS011;1830;49.000;12.074;2023-06-22T11:23:31;12.93;;;6.68;;
3627;SDS011;1830;49.000;12.074;2023-06-22T11:25:58;25.10;;;9.55;;
3627;SDS011;1830;49.000;12.074;2023-06-22T11:28:25;16.38;;;7.35;;
3627;SDS011;1830;49.000;12.074;2023-06-22T11:30:53;20.75;;;7.20;;
3627;SDS011;1830;49.000;12.074;2023-06-22T11:33:20;17.90;;;7.25;;
3627;SDS011;1830;49.000;12.074;2023-06-22T11:35:46;12.60;;;7.72;;
3627;SDS011;1830;49.000;12.074;2023-06-22T11:38:13;18.67;;;7.97;;
3627;SDS011;1830;49.000;12.074;2023-06-22T11:40:40;22.98;;;7.60;;
3627;SDS011;1830;49.000;12.074;2023-06-22T11:43:07;16.80;;;7.90;;
3627;SDS011;1830;49.000;12.074;2023-06-22T11:45:33;14.57;;;7.88;;
3627;SDS011;1830;49.000;12.074;2023-06-22T11:48:01;16.30;;;6.68;;
3627;SDS011;1830;49.000;12.074;2023-06-22T11:50:29;14.60;;;6.50;;
3627;SDS011;1830;49.000;12.074;2023-06-22T11:53:01;14.30;;;7.15;;
3627;SDS011;1830;49.000;12.074;2023-06-22T11:55:28;9.68;;;6.40;;
3627;SDS011;1830;49.000;12.074;2023-06-22T11:57:56;32.22;;;7.63;;
3627;SDS011;1830;49.000;12.074;2023-06-22T12:00:25;15.93;;;7.57;;
3627;SDS011;1830;49.000;12.074;2023-06-22T12:02:52;17.58;;;7.43;;
3627;SDS011;1830;49.000;12.074;2023-06-22T12:05:20;16.50;;;6.90;;
3627;SDS011;1830;49.000;12.074;2023-06-22T12:07:47;14.02;;;6.68;;
3627;SDS011;1830;49.000;12.074;2023-06-22T12:10:14;12.13;;;7.05;;
3627;SDS011;1830;49.000;12.074;2023-06-22T12:12:41;19.70;;;7.25;;
3627;SDS011;1830;49.000;12.074;2023-06-22T12:15:08;23.13;;;7.18;;
3627;SDS011;1830;49.000;12.074;2023-06-22T12:17:36;15.75;;;6.55;;
3627;SDS011;1830;49.000;12.074;2023-06-22T12:20:03;17.52;;;7.38;;
3627;SDS011;1830;49.000;12.074;2023-06-22T12:22:34;21.35;;;7.88;;
3627;SDS011;1830;49.000;12.074;2023-06-22T12:25:02;17.15;;;7.18;;
3627;SDS011;1830;49.000;12.074;2023-06-22T12:27:29;17.15;;;6.75;;
3627;SDS011;1830;49.000;12.074;2023-06-22T12:29:56;16.77;;;7.50;;
3627;SDS011;1830;49.000;12.074;2023-06-22T12:32:23;31.88;;;7.88;;
3627;SDS011;1830;49.000;12.074;2023-06-22T12:34:50;24.70;;;7.10;;
3627;SDS011;1830;49.000;12.074;2023-06-22T12:37:17;18.42;;;7.82;;
3627;SDS011;1830;49.000;12.074;2023-06-22T12:39:45;20.27;;;7.88;;
3627;SDS011;1830;49.000;12.074;2023-06-22T12:42:12;20.75;;;8.32;;
3627;SDS011;1830;49.000;12.074;2023-06-22T12:44:39;24.73;;;8.10;;
3627;SDS011;1830;49.000;12.074;2023-06-22T12:47:06;12.27;;;7.28;;
3627;SDS011;1830;49.000;12.074;2023-06-22T12:49:33;23.58;;;7.68;;
3627;SDS011;1830;49.000;12.074;2023-06-22T12:52:00;22.63;;;7.35;;
3627;SDS011;1830;49.000;12.074;2023-06-22T12:54:27;15.88;;;6.65;;
3627;SDS011;1830;49.000;12.074;2023-06-22T12:56:56;14.75;;;7.05;;
3627;SDS011;1830;49.000;12.074;2023-06-22T12:59:22;22.35;;;6.25;;
3627;SDS011;1830;49.000;12.074;2023-06-22T13:01:49;21.92;;;8.00;;
3627;SDS011;1830;49.000;12.074;2023-06-22T13:04:16;16.63;;;7.18;;
3627;SDS011;1830;49.000;12.074;2023-06-22T13:06:43;17.98;;;7.18;;
3627;SDS011;1830;49.000;12.074;2023-06-22T13:09:13;22.25;;;6.88;;
3627;SDS011;1830;49.000;12.074;2023-06-22T13:11:40;16.13;;;7.68;;
3627;SDS011;1830;49.000;12.074;2023-06-22T13:14:09;23.45;;;7.28;;
3627;SDS011;1830;49.000;12.074;2023-06-22T13:16:36;26.90;;;6.90;;
3627;SDS011;1830;49.000;12.074;2023-06-22T13:19:02;14.95;;;7.70;;
3627;SDS011;1830;49.000;12.074;2023-06-22T13:21:29;15.98;;;7.00;;
3627;SDS011;1830;49.000;12.074;2023-06-22T13:23:57;27.33;;;8.45;;
3627;SDS011;1830;49.000;12.074;2023-06-22T13:26:24;18.13;;;6.90;;
3627;SDS011;1830;49.000;12.074;2023-06-22T13:28:51;22.20;;;6.90;;
3627;SDS011;1830;49.000;12.074;2023-06-22T13:31:20;13.23;;;7.32;;
3627;SDS011;1830;49.000;12.074;2023-06-22T13:33:46;25.58;;;7.72;;
3627;SDS011;1830;49.000;12.074;2023-06-22T13:36:14;15.10;;;6.78;;
3627;SDS011;1830;49.000;12.074;2023-06-22T13:38:42;15.27;;;7.07;;
3627;SDS011;1830;49.000;12.074;2023-06-22T13:41:09;14.48;;;7.22;;
3627;SDS011;1830;49.000;12.074;2023-06-22T13:43:35;22.98;;;7.78;;
3627;SDS011;1830;49.000;12.074;2023-06-22T13:46:02;17.73;;;6.55;;
3627;SDS011;1830;49.000;12.074;2023-06-22T13:48:30;18.73;;;7.00;;
3627;SDS011;1830;49.000;12.074;2023-06-22T13:50:57;15.48;;;6.72;;
3627;SDS011;1830;49.000;12.074;2023-06-22T13:53:24;20.92;;;6.70;;
3627;SDS011;1830;49.000;12.074;2023-06-22T13:55:51;21.83;;;6.95;;
3627;SDS011;1830;49.000;12.074;2023-06-22T13:58:18;24.95;;;6.53;;
3627;SDS011;1830;49.000;12.074;2023-06-22T14:00:45;21.02;;;6.97;;
3627;SDS011;1830;49.000;12.074;2023-06-22T14:03:13;11.13;;;6.03;;
3627;SDS011;1830;49.000;12.074;2023-06-22T14:05:42;19.75;;;7.18;;
3627;SDS011;1830;49.000;12.074;2023-06-22T14:08:09;24.17;;;7.25;;
3627;SDS011;1830;49.000;12.074;2023-06-22T14:10:35;19.88;;;6.50;;
3627;SDS011;1830;49.000;12.074;2023-06-22T14:13:03;18.52;;;6.95;;
3627;SDS011;1830;49.000;12.074;2023-06-22T14:15:30;11.93;;;6.32;;
3627;SDS011;1830;49.000;12.074;2023-06-22T14:17:57;20.77;;;6.88;;
3627;SDS011;1830;49.000;12.074;2023-06-22T14:20:24;21.52;;;7.55;;
3627;SDS011;1830;49.000;12.074;2023-06-22T14:22:52;10.98;;;6.30;;
3627;SDS011;1830;49.000;12.074;2023-06-22T14:25:19;22.10;;;7.28;;
3627;SDS011;1830;49.000;12.074;2023-06-22T14:27:46;17.17;;;6.47;;
3627;SDS011;1830;49.000;12.074;2023-06-22T14:30:12;15.98;;;6.60;;
3627;SDS011;1830;49.000;12.074;2023-06-22T14:32:39;31.10;;;7.38;;
3627;SDS011;1830;49.000;12.074;2023-06-22T14:35:06;17.58;;;7.07;;
3627;SDS011;1830;49.000;12.074;2023-06-22T14:37:33;32.28;;;6.57;;
3627;SDS011;1830;49.000;12.074;2023-06-22T14:40:04;33.63;;;7.38;;
3627;SDS011;1830;49.000;12.074;2023-06-22T14:42:31;34.92;;;7.63;;